Terminal Aerodrome Forecast
Issued by NWS Milwaukee/Sullivan, WI

Home | Current Version | Previous Version | Text Only | Print | Product List | Glossary On
Versions: 1 2 3 4 5 6 7 8 9 10 11 12 13 14 15 16 17 18 19 20 21 22 23 24 25 26 27 28 29 30 31 32 33 34 35 36 37
000
FTUS43 KMKX 231741
TAFMSN
TAF
KMSN 231741Z 2318/2418 19011KT P6SM SCT040
     FM240100 17008KT P6SM SCT200
     FM240400 17007KT P6SM BKN045 PROB30 2407/2409 4SM -TSRA
      OVC015CB
     FM240900 18007KT P6SM OVC008 PROB30 2409/2410 4SM -TSRA
      OVC003CB
     FM241000 18008KT 5SM SHRA OVC010 PROB30 2410/2412 2SM TS
      OVC003CB
     FM241200 18009KT 3SM SHRA VCTS OVC010CB
     FM241300 18009KT 3SM SHRA VCTS OVC008CB
     FM241700 21010G18KT P6SM SHRA VCTS OVC010CB=

USA.gov is the U.S. government's official web portal to all federal, state and local government web resources and services.